sensor_id;sensor_type;location;lat;lon;timestamp;P1;durP1;ratioP1;P2;durP2;ratioP2
39066;SDS011;24821;51.988;6.020;2023-06-22T00:01:52;6.63;;;4.95;;
39066;SDS011;24821;51.988;6.020;2023-06-22T00:04:17;5.88;;;5.40;;
39066;SDS011;24821;51.988;6.020;2023-06-22T00:06:43;4.35;;;4.10;;
39066;SDS011;24821;51.988;6.020;2023-06-22T00:09:09;5.05;;;4.75;;
39066;SDS011;24821;51.988;6.020;2023-06-22T00:11:35;4.55;;;4.10;;
39066;SDS011;24821;51.988;6.020;2023-06-22T00:14:01;4.30;;;4.00;;
39066;SDS011;24821;51.988;6.020;2023-06-22T00:16:27;4.30;;;4.00;;
39066;SDS011;24821;51.988;6.020;2023-06-22T00:18:53;9.30;;;3.75;;
39066;SDS011;24821;51.988;6.020;2023-06-22T00:21:19;4.80;;;4.38;;
39066;SDS011;24821;51.988;6.020;2023-06-22T00:23:45;4.07;;;3.75;;
39066;SDS011;24821;51.988;6.020;2023-06-22T00:26:12;4.28;;;3.92;;
39066;SDS011;24821;51.988;6.020;2023-06-22T00:28:38;4.70;;;4.28;;
39066;SDS011;24821;51.988;6.020;2023-06-22T00:31:03;6.13;;;4.55;;
39066;SDS011;24821;51.988;6.020;2023-06-22T00:33:29;4.85;;;4.53;;
39066;SDS011;24821;51.988;6.020;2023-06-22T00:35:54;4.47;;;4.18;;
39066;SDS011;24821;51.988;6.020;2023-06-22T00:38:20;5.05;;;4.65;;
39066;SDS011;24821;51.988;6.020;2023-06-22T00:40:45;7.22;;;4.68;;
39066;SDS011;24821;51.988;6.020;2023-06-22T00:43:11;5.05;;;4.65;;
39066;SDS011;24821;51.988;6.020;2023-06-22T00:45:37;4.57;;;4.28;;
39066;SDS011;24821;51.988;6.020;2023-06-22T00:48:03;4.65;;;4.22;;
39066;SDS011;24821;51.988;6.020;2023-06-22T00:50:30;7.10;;;5.55;;
39066;SDS011;24821;51.988;6.020;2023-06-22T00:52:58;5.18;;;4.78;;
39066;SDS011;24821;51.988;6.020;2023-06-22T00:55:25;3.97;;;3.67;;
39066;SDS011;24821;51.988;6.020;2023-06-22T00:57:51;5.30;;;4.85;;
39066;SDS011;24821;51.988;6.020;2023-06-22T01:00:21;4.72;;;4.32;;
39066;SDS011;24821;51.988;6.020;2023-06-22T01:02:50;4.57;;;4.13;;
39066;SDS011;24821;51.988;6.020;2023-06-22T01:05:18;4.25;;;3.95;;
39066;SDS011;24821;51.988;6.020;2023-06-22T01:07:57;4.72;;;4.22;;
39066;SDS011;24821;51.988;6.020;2023-06-22T01:10:50;4.40;;;4.10;;
39066;SDS011;24821;51.988;6.020;2023-06-22T01:16:08;5.32;;;4.70;;
39066;SDS011;24821;51.988;6.020;2023-06-22T01:18:42;5.00;;;4.60;;
39066;SDS011;24821;51.988;6.020;2023-06-22T01:21:08;4.65;;;4.35;;
39066;SDS011;24821;51.988;6.020;2023-06-22T01:29:27;5.10;;;4.70;;
39066;SDS011;24821;51.988;6.020;2023-06-22T01:31:55;5.22;;;4.60;;
39066;SDS011;24821;51.988;6.020;2023-06-22T01:34:22;4.35;;;4.07;;
39066;SDS011;24821;51.988;6.020;2023-06-22T01:36:49;5.05;;;4.68;;
39066;SDS011;24821;51.988;6.020;2023-06-22T01:39:16;5.68;;;5.22;;
39066;SDS011;24821;51.988;6.020;2023-06-22T01:41:43;5.72;;;5.25;;
39066;SDS011;24821;51.988;6.020;2023-06-22T01:44:09;4.50;;;4.30;;
39066;SDS011;24821;51.988;6.020;2023-06-22T01:46:36;5.00;;;4.70;;
39066;SDS011;24821;51.988;6.020;2023-06-22T01:49:03;5.03;;;4.63;;
39066;SDS011;24821;51.988;6.020;2023-06-22T01:51:30;5.80;;;4.53;;
39066;SDS011;24821;51.988;6.020;2023-06-22T01:53:55;6.20;;;5.70;;
39066;SDS011;24821;51.988;6.020;2023-06-22T01:56:21;5.15;;;4.85;;
39066;SDS011;24821;51.988;6.020;2023-06-22T01:59:09;5.95;;;5.50;;
39066;SDS011;24821;51.988;6.020;2023-06-22T02:01:44;5.80;;;5.50;;
39066;SDS011;24821;51.988;6.020;2023-06-22T02:04:26;6.88;;;6.35;;
39066;SDS011;24821;51.988;6.020;2023-06-22T02:06:58;6.65;;;6.18;;
39066;SDS011;24821;51.988;6.020;2023-06-22T02:09:24;6.60;;;6.20;;
39066;SDS011;24821;51.988;6.020;2023-06-22T02:11:53;7.43;;;7.03;;
39066;SDS011;24821;51.988;6.020;2023-06-22T02:14:21;7.60;;;7.10;;
39066;SDS011;24821;51.988;6.020;2023-06-22T02:16:48;7.07;;;6.68;;
39066;SDS011;24821;51.988;6.020;2023-06-22T02:19:15;7.78;;;7.28;;
39066;SDS011;24821;51.988;6.020;2023-06-22T02:21:41;8.77;;;8.15;;
39066;SDS011;24821;51.988;6.020;2023-06-22T02:24:06;7.75;;;7.32;;
39066;SDS011;24821;51.988;6.020;2023-06-22T02:26:32;8.82;;;8.30;;
39066;SDS011;24821;51.988;6.020;2023-06-22T02:28:57;10.10;;;8.35;;
39066;SDS011;24821;51.988;6.020;2023-06-22T02:31:23;8.43;;;7.55;;
39066;SDS011;24821;51.988;6.020;2023-06-22T02:33:55;8.35;;;7.82;;
39066;SDS011;24821;51.988;6.020;2023-06-22T02:36:23;8.73;;;8.02;;
39066;SDS011;24821;51.988;6.020;2023-06-22T02:38:51;8.48;;;8.00;;
39066;SDS011;24821;51.988;6.020;2023-06-22T02:41:17;8.80;;;8.13;;
39066;SDS011;24821;51.988;6.020;2023-06-22T02:43:44;9.90;;;9.20;;
39066;SDS011;24821;51.988;6.020;2023-06-22T02:46:13;9.02;;;8.52;;
39066;SDS011;24821;51.988;6.020;2023-06-22T02:48:39;9.50;;;9.00;;
39066;SDS011;24821;51.988;6.020;2023-06-22T02:51:05;10.82;;;10.05;;
39066;SDS011;24821;51.988;6.020;2023-06-22T02:53:31;8.43;;;8.02;;
39066;SDS011;24821;51.988;6.020;2023-06-22T02:55:57;9.35;;;8.52;;
39066;SDS011;24821;51.988;6.020;2023-06-22T02:58:23;9.60;;;9.07;;
39066;SDS011;24821;51.988;6.020;2023-06-22T03:00:49;10.65;;;9.75;;
39066;SDS011;24821;51.988;6.020;2023-06-22T03:03:18;10.50;;;9.80;;
39066;SDS011;24821;51.988;6.020;2023-06-22T03:05:44;9.20;;;8.73;;
39066;SDS011;24821;51.988;6.020;2023-06-22T03:08:09;9.82;;;9.20;;
39066;SDS011;24821;51.988;6.020;2023-06-22T03:10:35;10.35;;;9.55;;
39066;SDS011;24821;51.988;6.020;2023-06-22T03:13:01;11.63;;;10.63;;
39066;SDS011;24821;51.988;6.020;2023-06-22T03:15:26;11.10;;;10.25;;
39066;SDS011;24821;51.988;6.020;2023-06-22T03:17:54;10.95;;;10.18;;
39066;SDS011;24821;51.988;6.020;2023-06-22T03:20:20;10.80;;;10.00;;
39066;SDS011;24821;51.988;6.020;2023-06-22T03:22:45;11.48;;;10.43;;
39066;SDS011;24821;51.988;6.020;2023-06-22T03:25:11;16.45;;;10.00;;
39066;SDS011;24821;51.988;6.020;2023-06-22T03:27:40;9.45;;;8.85;;
39066;SDS011;24821;51.988;6.020;2023-06-22T03:30:07;9.20;;;8.50;;
39066;SDS011;24821;51.988;6.020;2023-06-22T03:32:34;8.98;;;8.27;;
39066;SDS011;24821;51.988;6.020;2023-06-22T03:35:00;10.13;;;9.20;;
39066;SDS011;24821;51.988;6.020;2023-06-22T03:37:27;12.32;;;9.73;;
39066;SDS011;24821;51.988;6.020;2023-06-22T03:39:53;9.45;;;8.75;;
39066;SDS011;24821;51.988;6.020;2023-06-22T03:42:19;10.10;;;9.32;;
39066;SDS011;24821;51.988;6.020;2023-06-22T03:44:44;10.65;;;9.75;;
39066;SDS011;24821;51.988;6.020;2023-06-22T03:47:10;11.82;;;10.63;;
39066;SDS011;24821;51.988;6.020;2023-06-22T03:49:35;11.48;;;10.48;;
39066;SDS011;24821;51.988;6.020;2023-06-22T03:52:01;11.40;;;10.32;;
39066;SDS011;24821;51.988;6.020;2023-06-22T03:54:28;11.10;;;10.02;;
39066;SDS011;24821;51.988;6.020;2023-06-22T03:56:55;10.38;;;9.57;;
39066;SDS011;24821;51.988;6.020;2023-06-22T03:59:21;10.10;;;9.30;;
39066;SDS011;24821;51.988;6.020;2023-06-22T04:01:47;12.60;;;11.52;;
39066;SDS011;24821;51.988;6.020;2023-06-22T04:04:13;16.08;;;10.90;;
39066;SDS011;24821;51.988;6.020;2023-06-22T04:06:38;11.80;;;10.60;;
39066;SDS011;24821;51.988;6.020;2023-06-22T04:09:05;11.43;;;10.30;;
39066;SDS011;24821;51.988;6.020;2023-06-22T04:11:31;16.63;;;11.02;;
39066;SDS011;24821;51.988;6.020;2023-06-22T04:13:57;12.57;;;11.10;;
39066;SDS011;24821;51.988;6.020;2023-06-22T04:16:23;20.00;;;11.65;;
39066;SDS011;24821;51.988;6.020;2023-06-22T04:18:48;15.45;;;12.50;;
39066;SDS011;24821;51.988;6.020;2023-06-22T04:21:14;13.38;;;11.07;;
39066;SDS011;24821;51.988;6.020;2023-06-22T04:23:39;12.75;;;11.38;;
39066;SDS011;24821;51.988;6.020;2023-06-22T04:26:05;12.23;;;10.98;;
39066;SDS011;24821;51.988;6.020;2023-06-22T04:28:31;17.70;;;11.45;;
39066;SDS011;24821;51.988;6.020;2023-06-22T04:31:00;12.60;;;11.20;;
39066;SDS011;24821;51.988;6.020;2023-06-22T04:33:29;18.60;;;13.18;;
39066;SDS011;24821;51.988;6.020;2023-06-22T04:35:55;19.35;;;12.27;;
39066;SDS011;24821;51.988;6.020;2023-06-22T04:38:26;18.38;;;10.90;;
39066;SDS011;24821;51.988;6.020;2023-06-22T04:40:51;13.60;;;11.45;;
39066;SDS011;24821;51.988;6.020;2023-06-22T04:43:18;15.32;;;13.15;;
39066;SDS011;24821;51.988;6.020;2023-06-22T04:45:44;12.80;;;11.43;;
39066;SDS011;24821;51.988;6.020;2023-06-22T04:48:09;13.60;;;11.45;;
39066;SDS011;24821;51.988;6.020;2023-06-22T04:50:40;14.32;;;10.52;;
39066;SDS011;24821;51.988;6.020;2023-06-22T04:53:06;15.35;;;11.70;;
39066;SDS011;24821;51.988;6.020;2023-06-22T04:55:32;14.10;;;12.75;;
39066;SDS011;24821;51.988;6.020;2023-06-22T04:57:58;13.73;;;12.10;;
39066;SDS011;24821;51.988;6.020;2023-06-22T05:00:29;19.08;;;13.05;;
39066;SDS011;24821;51.988;6.020;2023-06-22T05:02:56;13.88;;;12.43;;
39066;SDS011;24821;51.988;6.020;2023-06-22T05:05:22;14.77;;;12.43;;
39066;SDS011;24821;51.988;6.020;2023-06-22T05:07:49;16.70;;;13.15;;
39066;SDS011;24821;51.988;6.020;2023-06-22T05:10:17;13.50;;;12.13;;
39066;SDS011;24821;51.988;6.020;2023-06-22T05:12:44;15.32;;;11.85;;
39066;SDS011;24821;51.988;6.020;2023-06-22T05:15:10;16.25;;;14.27;;
39066;SDS011;24821;51.988;6.020;2023-06-22T05:17:36;17.67;;;12.70;;
39066;SDS011;24821;51.988;6.020;2023-06-22T05:20:07;16.67;;;13.40;;
39066;SDS011;24821;51.988;6.020;2023-06-22T05:22:37;18.98;;;13.27;;
39066;SDS011;24821;51.988;6.020;2023-06-22T05:25:04;15.57;;;12.82;;
39066;SDS011;24821;51.988;6.020;2023-06-22T05:27:33;14.02;;;12.77;;
39066;SDS011;24821;51.988;6.020;2023-06-22T05:29:59;16.73;;;15.13;;
39066;SDS011;24821;51.988;6.020;2023-06-22T05:32:24;15.55;;;14.13;;
39066;SDS011;24821;51.988;6.020;2023-06-22T05:34:50;15.40;;;13.85;;
39066;SDS011;24821;51.988;6.020;2023-06-22T05:37:15;16.05;;;14.38;;
39066;SDS011;24821;51.988;6.020;2023-06-22T05:39:41;14.65;;;13.35;;
39066;SDS011;24821;51.988;6.020;2023-06-22T05:42:07;17.50;;;15.65;;
39066;SDS011;24821;51.988;6.020;2023-06-22T05:44:33;14.90;;;13.50;;
39066;SDS011;24821;51.988;6.020;2023-06-22T05:46:58;17.05;;;15.55;;
39066;SDS011;24821;51.988;6.020;2023-06-22T05:49:24;17.05;;;15.45;;
39066;SDS011;24821;51.988;6.020;2023-06-22T05:51:54;14.95;;;13.70;;
39066;SDS011;24821;51.988;6.020;2023-06-22T05:54:21;15.35;;;13.82;;
39066;SDS011;24821;51.988;6.020;2023-06-22T05:56:46;16.73;;;15.00;;
39066;SDS011;24821;51.988;6.020;2023-06-22T05:59:12;13.68;;;12.48;;
39066;SDS011;24821;51.988;6.020;2023-06-22T06:01:38;16.73;;;14.80;;
39066;SDS011;24821;51.988;6.020;2023-06-22T06:04:04;13.73;;;12.43;;
39066;SDS011;24821;51.988;6.020;2023-06-22T06:06:33;15.63;;;12.85;;
39066;SDS011;24821;51.988;6.020;2023-06-22T06:09:02;14.57;;;13.07;;
39066;SDS011;24821;51.988;6.020;2023-06-22T06:11:28;14.68;;;13.25;;
39066;SDS011;24821;51.988;6.020;2023-06-22T06:13:54;14.38;;;12.40;;
39066;SDS011;24821;51.988;6.020;2023-06-22T06:16:19;13.68;;;12.00;;
39066;SDS011;24821;51.988;6.020;2023-06-22T06:18:45;11.88;;;9.70;;
39066;SDS011;24821;51.988;6.020;2023-06-22T06:21:10;11.07;;;9.25;;
39066;SDS011;24821;51.988;6.020;2023-06-22T06:23:36;17.38;;;9.10;;
39066;SDS011;24821;51.988;6.020;2023-06-22T06:26:01;13.43;;;8.38;;
39066;SDS011;24821;51.988;6.020;2023-06-22T06:28:32;14.45;;;9.52;;
39066;SDS011;24821;51.988;6.020;2023-06-22T06:30:57;10.55;;;9.40;;
39066;SDS011;24821;51.988;6.020;2023-06-22T06:33:23;9.65;;;8.65;;
39066;SDS011;24821;51.988;6.020;2023-06-22T06:35:49;11.23;;;8.88;;
39066;SDS011;24821;51.988;6.020;2023-06-22T06:38:15;12.25;;;9.65;;
39066;SDS011;24821;51.988;6.020;2023-06-22T06:40:40;11.55;;;9.27;;
39066;SDS011;24821;51.988;6.020;2023-06-22T06:43:06;8.60;;;7.78;;
39066;SDS011;24821;51.988;6.020;2023-06-22T06:45:31;12.10;;;9.93;;
39066;SDS011;24821;51.988;6.020;2023-06-22T06:47:59;11.02;;;9.48;;
39066;SDS011;24821;51.988;6.020;2023-06-22T06:50:25;11.38;;;9.50;;
39066;SDS011;24821;51.988;6.020;2023-06-22T06:52:50;10.43;;;9.32;;
39066;SDS011;24821;51.988;6.020;2023-06-22T06:55:16;10.63;;;8.80;;
39066;SDS011;24821;51.988;6.020;2023-06-22T06:57:42;9.52;;;8.23;;
39066;SDS011;24821;51.988;6.020;2023-06-22T07:00:09;14.30;;;10.30;;
39066;SDS011;24821;51.988;6.020;2023-06-22T07:02:40;11.38;;;9.52;;
39066;SDS011;24821;51.988;6.020;2023-06-22T07:05:11;9.55;;;8.50;;
39066;SDS011;24821;51.988;6.020;2023-06-22T07:07:37;11.70;;;10.38;;
39066;SDS011;24821;51.988;6.020;2023-06-22T07:10:03;13.18;;;10.43;;
39066;SDS011;24821;51.988;6.020;2023-06-22T07:12:30;11.73;;;10.38;;
39066;SDS011;24821;51.988;6.020;2023-06-22T07:15:01;9.55;;;8.73;;
39066;SDS011;24821;51.988;6.020;2023-06-22T07:17:28;11.07;;;9.93;;
39066;SDS011;24821;51.988;6.020;2023-06-22T07:19:54;11.45;;;10.35;;
39066;SDS011;24821;51.988;6.020;2023-06-22T07:22:20;11.40;;;9.90;;
39066;SDS011;24821;51.988;6.020;2023-06-22T07:24:45;10.05;;;9.02;;
39066;SDS011;24821;51.988;6.020;2023-06-22T07:27:11;10.57;;;9.57;;
39066;SDS011;24821;51.988;6.020;2023-06-22T07:29:37;11.98;;;10.77;;
39066;SDS011;24821;51.988;6.020;2023-06-22T07:32:05;13.73;;;10.18;;
39066;SDS011;24821;51.988;6.020;2023-06-22T07:34:31;11.60;;;9.57;;
39066;SDS011;24821;51.988;6.020;2023-06-22T07:36:57;11.63;;;9.63;;
39066;SDS011;24821;51.988;6.020;2023-06-22T07:39:22;9.98;;;9.27;;
39066;SDS011;24821;51.988;6.020;2023-06-22T07:41:51;11.75;;;9.32;;
39066;SDS011;24821;51.988;6.020;2023-06-22T07:44:16;11.20;;;10.07;;
39066;SDS011;24821;51.988;6.020;2023-06-22T07:46:42;9.40;;;7.32;;
39066;SDS011;24821;51.988;6.020;2023-06-22T07:49:08;11.50;;;9.02;;
39066;SDS011;24821;51.988;6.020;2023-06-22T07:51:33;9.48;;;8.68;;
39066;SDS011;24821;51.988;6.020;2023-06-22T07:53:59;9.13;;;8.38;;
39066;SDS011;24821;51.988;6.020;2023-06-22T07:56:25;8.90;;;8.18;;
39066;SDS011;24821;51.988;6.020;2023-06-22T07:58:50;8.95;;;8.18;;
39066;SDS011;24821;51.988;6.020;2023-06-22T08:01:16;9.32;;;8.52;;
39066;SDS011;24821;51.988;6.020;2023-06-22T08:03:44;9.38;;;8.48;;
39066;SDS011;24821;51.988;6.020;2023-06-22T08:06:09;10.50;;;9.50;;
39066;SDS011;24821;51.988;6.020;2023-06-22T08:08:36;10.30;;;9.35;;
39066;SDS011;24821;51.988;6.020;2023-06-22T08:11:02;9.95;;;9.18;;
39066;SDS011;24821;51.988;6.020;2023-06-22T08:13:28;9.23;;;8.10;;
39066;SDS011;24821;51.988;6.020;2023-06-22T08:15:53;9.23;;;8.43;;
39066;SDS011;24821;51.988;6.020;2023-06-22T08:18:19;8.93;;;8.13;;
39066;SDS011;24821;51.988;6.020;2023-06-22T08:20:45;9.55;;;8.75;;
39066;SDS011;24821;51.988;6.020;2023-06-22T08:23:10;11.23;;;9.45;;
39066;SDS011;24821;51.988;6.020;2023-06-22T08:25:36;9.13;;;8.23;;
39066;SDS011;24821;51.988;6.020;2023-06-22T08:28:02;8.60;;;7.70;;
39066;SDS011;24821;51.988;6.020;2023-06-22T08:30:28;8.40;;;7.38;;
39066;SDS011;24821;51.988;6.020;2023-06-22T08:32:54;7.28;;;6.68;;
39066;SDS011;24821;51.988;6.020;2023-06-22T08:35:20;8.18;;;7.38;;
39066;SDS011;24821;51.988;6.020;2023-06-22T08:37:47;7.82;;;7.10;;
39066;SDS011;24821;51.988;6.020;2023-06-22T08:40:17;9.05;;;7.03;;
39066;SDS011;24821;51.988;6.020;2023-06-22T08:42:44;7.05;;;6.43;;
39066;SDS011;24821;51.988;6.020;2023-06-22T08:45:10;8.27;;;7.57;;
39066;SDS011;24821;51.988;6.020;2023-06-22T08:47:36;6.88;;;6.20;;
39066;SDS011;24821;51.988;6.020;2023-06-22T08:50:02;5.90;;;5.28;;
39066;SDS011;24821;51.988;6.020;2023-06-22T08:52:28;9.35;;;5.95;;
39066;SDS011;24821;51.988;6.020;2023-06-22T08:54:54;6.70;;;4.97;;
39066;SDS011;24821;51.988;6.020;2023-06-22T08:57:20;7.22;;;5.05;;
39066;SDS011;24821;51.988;6.020;2023-06-22T08:59:46;5.22;;;4.57;;
39066;SDS011;24821;51.988;6.020;2023-06-22T09:02:12;5.07;;;4.07;;
39066;SDS011;24821;51.988;6.020;2023-06-22T09:04:37;6.13;;;4.72;;
39066;SDS011;24821;51.988;6.020;2023-06-22T09:07:03;6.22;;;5.55;;
39066;SDS011;24821;51.988;6.020;2023-06-22T09:09:29;6.00;;;5.07;;
39066;SDS011;24821;51.988;6.020;2023-06-22T09:11:55;4.40;;;4.10;;
39066;SDS011;24821;51.988;6.020;2023-06-22T09:14:20;5.22;;;4.68;;
39066;SDS011;24821;51.988;6.020;2023-06-22T09:16:46;5.47;;;4.85;;
39066;SDS011;24821;51.988;6.020;2023-06-22T09:19:11;5.03;;;4.50;;
39066;SDS011;24821;51.988;6.020;2023-06-22T09:21:37;6.10;;;4.72;;
39066;SDS011;24821;51.988;6.020;2023-06-22T09:24:02;5.95;;;5.35;;
39066;SDS011;24821;51.988;6.020;2023-06-22T09:26:28;5.82;;;4.38;;
39066;SDS011;24821;51.988;6.020;2023-06-22T09:28:54;9.70;;;4.45;;
39066;SDS011;24821;51.988;6.020;2023-06-22T09:31:19;6.22;;;5.30;;
39066;SDS011;24821;51.988;6.020;2023-06-22T09:33:50;6.07;;;4.10;;
39066;SDS011;24821;51.988;6.020;2023-06-22T09:36:17;5.78;;;4.55;;
39066;SDS011;24821;51.988;6.020;2023-06-22T09:38:43;7.45;;;4.22;;
39066;SDS011;24821;51.988;6.020;2023-06-22T09:41:09;5.28;;;4.78;;
39066;SDS011;24821;51.988;6.020;2023-06-22T09:43:34;6.93;;;4.25;;
39066;SDS011;24821;51.988;6.020;2023-06-22T09:46:01;10.43;;;4.55;;
39066;SDS011;24821;51.988;6.020;2023-06-22T09:48:27;4.13;;;3.42;;
39066;SDS011;24821;51.988;6.020;2023-06-22T09:50:54;4.85;;;3.22;;
39066;SDS011;24821;51.988;6.020;2023-06-22T09:53:19;5.47;;;3.50;;
39066;SDS011;24821;51.988;6.020;2023-06-22T09:55:45;7.63;;;4.28;;
39066;SDS011;24821;51.988;6.020;2023-06-22T09:58:11;3.88;;;3.47;;
39066;SDS011;24821;51.988;6.020;2023-06-22T10:00:36;4.55;;;3.38;;
39066;SDS011;24821;51.988;6.020;2023-06-22T10:03:02;4.22;;;3.83;;
39066;SDS011;24821;51.988;6.020;2023-06-22T10:05:27;5.15;;;3.97;;
39066;SDS011;24821;51.988;6.020;2023-06-22T10:07:53;4.45;;;4.05;;
39066;SDS011;24821;51.988;6.020;2023-06-22T10:10:18;4.90;;;3.97;;
39066;SDS011;24821;51.988;6.020;2023-06-22T10:12:48;4.47;;;3.85;;
39066;SDS011;24821;51.988;6.020;2023-06-22T10:15:20;4.00;;;3.60;;
39066;SDS011;24821;51.988;6.020;2023-06-22T10:17:46;4.40;;;3.97;;
39066;SDS011;24821;51.988;6.020;2023-06-22T10:20:12;5.05;;;4.60;;
39066;SDS011;24821;51.988;6.020;2023-06-22T10:22:41;5.75;;;4.57;;
39066;SDS011;24821;51.988;6.020;2023-06-22T10:25:09;8.77;;;5.53;;
39066;SDS011;24821;51.988;6.020;2023-06-22T10:27:36;6.32;;;5.20;;
39066;SDS011;24821;51.988;6.020;2023-06-22T10:30:04;6.07;;;4.45;;
39066;SDS011;24821;51.988;6.020;2023-06-22T10:32:31;7.65;;;4.70;;
39066;SDS011;24821;51.988;6.020;2023-06-22T10:34:57;5.63;;;3.88;;
39066;SDS011;24821;51.988;6.020;2023-06-22T10:37:22;4.35;;;3.90;;
39066;SDS011;24821;51.988;6.020;2023-06-22T10:39:48;4.30;;;3.90;;
39066;SDS011;24821;51.988;6.020;2023-06-22T10:42:13;4.18;;;3.80;;
39066;SDS011;24821;51.988;6.020;2023-06-22T10:44:39;4.75;;;4.38;;
39066;SDS011;24821;51.988;6.020;2023-06-22T10:47:06;4.80;;;4.30;;
39066;SDS011;24821;51.988;6.020;2023-06-22T10:49:32;4.15;;;3.75;;
39066;SDS011;24821;51.988;6.020;2023-06-22T10:51:57;4.72;;;4.32;;
39066;SDS011;24821;51.988;6.020;2023-06-22T10:54:23;4.95;;;4.00;;
39066;SDS011;24821;51.988;6.020;2023-06-22T10:56:48;6.05;;;5.20;;
39066;SDS011;24821;51.988;6.020;2023-06-22T10:59:14;5.38;;;4.82;;
39066;SDS011;24821;51.988;6.020;2023-06-22T11:01:40;8.80;;;5.50;;
39066;SDS011;24821;51.988;6.020;2023-06-22T11:04:05;6.40;;;5.13;;
39066;SDS011;24821;51.988;6.020;2023-06-22T11:06:31;6.20;;;5.57;;
39066;SDS011;24821;51.988;6.020;2023-06-22T11:08:56;5.60;;;4.82;;
39066;SDS011;24821;51.988;6.020;2023-06-22T11:11:23;5.40;;;4.90;;
39066;SDS011;24821;51.988;6.020;2023-06-22T11:13:50;4.97;;;4.50;;
39066;SDS011;24821;51.988;6.020;2023-06-22T11:16:15;7.28;;;5.07;;
39066;SDS011;24821;51.988;6.020;2023-06-22T11:18:41;6.13;;;4.28;;
39066;SDS011;24821;51.988;6.020;2023-06-22T11:21:06;5.35;;;4.85;;
39066;SDS011;24821;51.988;6.020;2023-06-22T11:23:32;6.93;;;3.83;;
39066;SDS011;24821;51.988;6.020;2023-06-22T11:25:57;4.88;;;3.70;;
39066;SDS011;24821;51.988;6.020;2023-06-22T11:28:23;4.60;;;4.20;;
39066;SDS011;24821;51.988;6.020;2023-06-22T11:30:48;4.32;;;3.78;;
39066;SDS011;24821;51.988;6.020;2023-06-22T11:33:14;5.60;;;4.82;;
39066;SDS011;24821;51.988;6.020;2023-06-22T11:35:40;4.43;;;4.03;;
39066;SDS011;24821;51.988;6.020;2023-06-22T11:38:05;5.93;;;5.43;;
39066;SDS011;24821;51.988;6.020;2023-06-22T11:40:32;6.80;;;4.80;;
39066;SDS011;24821;51.988;6.020;2023-06-22T11:42:58;5.45;;;4.65;;
39066;SDS011;24821;51.988;6.020;2023-06-22T11:45:23;5.88;;;5.47;;
39066;SDS011;24821;51.988;6.020;2023-06-22T11:47:49;4.75;;;4.45;;
39066;SDS011;24821;51.988;6.020;2023-06-22T11:50:15;5.28;;;4.50;;
39066;SDS011;24821;51.988;6.020;2023-06-22T11:52:40;6.03;;;5.63;;
39066;SDS011;24821;51.988;6.020;2023-06-22T11:55:06;5.05;;;4.65;;
39066;SDS011;24821;51.988;6.020;2023-06-22T11:57:36;6.15;;;5.75;;
39066;SDS011;24821;51.988;6.020;2023-06-22T12:00:03;6.75;;;6.20;;
39066;SDS011;24821;51.988;6.020;2023-06-22T12:02:42;7.13;;;6.63;;
39066;SDS011;24821;51.988;6.020;2023-06-22T12:05:09;8.20;;;7.65;;
39066;SDS011;24821;51.988;6.020;2023-06-22T12:07:35;10.20;;;9.32;;
39066;SDS011;24821;51.988;6.020;2023-06-22T12:10:02;8.52;;;7.85;;
39066;SDS011;24821;51.988;6.020;2023-06-22T12:12:28;10.95;;;8.25;;
39066;SDS011;24821;51.988;6.020;2023-06-22T12:14:53;8.02;;;7.47;;
39066;SDS011;24821;51.988;6.020;2023-06-22T12:17:19;9.55;;;8.95;;
39066;SDS011;24821;51.988;6.020;2023-06-22T12:19:44;9.60;;;8.75;;
39066;SDS011;24821;51.988;6.020;2023-06-22T12:22:10;8.48;;;7.43;;
39066;SDS011;24821;51.988;6.020;2023-06-22T12:24:36;6.63;;;6.13;;
39066;SDS011;24821;51.988;6.020;2023-06-22T12:27:01;8.77;;;7.47;;
39066;SDS011;24821;51.988;6.020;2023-06-22T12:29:28;6.60;;;6.05;;
39066;SDS011;24821;51.988;6.020;2023-06-22T12:31:54;6.28;;;5.75;;
39066;SDS011;24821;51.988;6.020;2023-06-22T12:34:19;5.30;;;4.80;;
39066;SDS011;24821;51.988;6.020;2023-06-22T12:36:45;7.68;;;6.03;;
39066;SDS011;24821;51.988;6.020;2023-06-22T12:39:13;8.20;;;5.60;;
39066;SDS011;24821;51.988;6.020;2023-06-22T12:41:38;8.05;;;5.25;;
39066;SDS011;24821;51.988;6.020;2023-06-22T12:44:04;5.75;;;5.20;;
39066;SDS011;24821;51.988;6.020;2023-06-22T12:46:29;5.63;;;5.13;;
39066;SDS011;24821;51.988;6.020;2023-06-22T12:49:02;6.50;;;5.20;;
39066;SDS011;24821;51.988;6.020;2023-06-22T12:51:29;6.78;;;5.82;;
39066;SDS011;24821;51.988;6.020;2023-06-22T12:53:55;9.80;;;8.88;;
39066;SDS011;24821;51.988;6.020;2023-06-22T12:56:21;8.50;;;6.63;;
39066;SDS011;24821;51.988;6.020;2023-06-22T12:58:46;8.55;;;6.07;;
39066;SDS011;24821;51.988;6.020;2023-06-22T13:01:12;6.82;;;5.70;;
39066;SDS011;24821;51.988;6.020;2023-06-22T13:03:38;5.93;;;5.28;;
39066;SDS011;24821;51.988;6.020;2023-06-22T13:06:03;6.68;;;6.00;;
39066;SDS011;24821;51.988;6.020;2023-06-22T13:08:29;7.63;;;6.47;;
39066;SDS011;24821;51.988;6.020;2023-06-22T13:10:55;6.60;;;6.00;;
39066;SDS011;24821;51.988;6.020;2023-06-22T13:13:25;7.05;;;6.38;;
39066;SDS011;24821;51.988;6.020;2023-06-22T13:15:54;7.57;;;6.57;;
39066;SDS011;24821;51.988;6.020;2023-06-22T13:18:19;7.40;;;6.45;;
39066;SDS011;24821;51.988;6.020;2023-06-22T13:20:45;9.05;;;7.05;;
39066;SDS011;24821;51.988;6.020;2023-06-22T13:23:11;8.05;;;6.85;;
39066;SDS011;24821;51.988;6.020;2023-06-22T13:25:37;7.07;;;6.38;;
39066;SDS011;24821;51.988;6.020;2023-06-22T13:28:02;7.50;;;6.80;;
39066;SDS011;24821;51.988;6.020;2023-06-22T13:30:28;7.93;;;6.82;;
39066;SDS011;24821;51.988;6.020;2023-06-22T13:32:54;7.30;;;6.60;;
39066;SDS011;24821;51.988;6.020;2023-06-22T13:35:20;12.07;;;7.95;;
39066;SDS011;24821;51.988;6.020;2023-06-22T13:37:46;9.32;;;8.43;;
39066;SDS011;24821;51.988;6.020;2023-06-22T13:40:11;10.38;;;9.43;;
39066;SDS011;24821;51.988;6.020;2023-06-22T13:42:37;10.00;;;8.82;;
39066;SDS011;24821;51.988;6.020;2023-06-22T13:45:03;9.43;;;8.50;;
39066;SDS011;24821;51.988;6.020;2023-06-22T13:47:30;10.48;;;9.57;;
39066;SDS011;24821;51.988;6.020;2023-06-22T13:49:56;11.02;;;10.13;;
39066;SDS011;24821;51.988;6.020;2023-06-22T13:52:22;11.27;;;10.18;;
39066;SDS011;24821;51.988;6.020;2023-06-22T13:54:48;11.15;;;10.07;;
39066;SDS011;24821;51.988;6.020;2023-06-22T13:57:14;11.32;;;10.40;;
39066;SDS011;24821;51.988;6.020;2023-06-22T13:59:39;10.15;;;9.30;;
39066;SDS011;24821;51.988;6.020;2023-06-22T14:02:05;12.07;;;10.98;;
39066;SDS011;24821;51.988;6.020;2023-06-22T14:04:31;10.77;;;9.70;;
39066;SDS011;24821;51.988;6.020;2023-06-22T14:06:57;10.45;;;9.20;;
39066;SDS011;24821;51.988;6.020;2023-06-22T14:09:22;11.57;;;10.48;;
39066;SDS011;24821;51.988;6.020;2023-06-22T14:11:48;9.82;;;9.02;;
39066;SDS011;24821;51.988;6.020;2023-06-22T14:14:14;10.93;;;9.95;;
39066;SDS011;24821;51.988;6.020;2023-06-22T14:16:39;10.52;;;9.52;;
39066;SDS011;24821;51.988;6.020;2023-06-22T14:19:05;9.88;;;8.98;;
39066;SDS011;24821;51.988;6.020;2023-06-22T14:21:30;11.20;;;10.18;;
39066;SDS011;24821;51.988;6.020;2023-06-22T14:23:56;11.13;;;10.02;;
39066;SDS011;24821;51.988;6.020;2023-06-22T14:26:22;9.30;;;8.40;;
39066;SDS011;24821;51.988;6.020;2023-06-22T14:28:47;11.40;;;9.10;;
39066;SDS011;24821;51.988;6.020;2023-06-22T14:31:16;10.57;;;9.48;;
39066;SDS011;24821;51.988;6.020;2023-06-22T14:33:46;10.30;;;9.40;;
39066;SDS011;24821;51.988;6.020;2023-06-22T14:36:13;11.18;;;10.00;;
39066;SDS011;24821;51.988;6.020;2023-06-22T14:38:39;12.52;;;11.18;;
39066;SDS011;24821;51.988;6.020;2023-06-22T14:41:05;10.77;;;9.73;;
39066;SDS011;24821;51.988;6.020;2023-06-22T14:43:30;10.32;;;9.43;;